Time;durP1;ratioP1;P1;durP2;ratioP2;P2;SDS_P1;SDS_P2;PMS_P1;PMS_P2;Temp;Humidity;BMP_temperature;BMP_pressure;BME280_temperature;BME280_humidity;BME280_pressure;Samples;Min_cycle;Max_cycle;Signal;HPM_P1;HPM_P2
2022/11/14 00:02:22;;;;;;;32.92;18.73;;;7.00;99.90;;;;;;4957139;28;20090;-84
2022/11/14 00:04:48;;;;;;;33.28;18.63;;;8.60;99.90;;;;;;4954092;28;20029;-86
2022/11/14 00:07:14;;;;;;;31.92;17.38;;;7.00;99.90;;;;;;4952391;28;20046;-87
2022/11/14 00:09:41;;;;;;;33.15;18.10;;;7.90;99.90;;;;;;4954305;28;20035;-86
2022/11/14 00:12:09;;;;;;;33.08;17.15;;;9.50;99.90;;;;;;4970531;28;20467;-87
2022/11/14 00:14:34;;;;;;;33.15;17.05;;;6.70;99.90;;;;;;4970915;28;20039;-87
2022/11/14 00:17:00;;;;;;;32.85;17.33;;;9.00;99.90;;;;;;4966681;28;20641;-86
2022/11/14 00:19:26;;;;;;;31.23;17.52;;;6.80;99.90;;;;;;4955497;28;20030;-86
2022/11/14 00:21:52;;;;;;;32.25;18.08;;;6.90;99.90;;;;;;4970532;28;20066;-82
2022/11/14 00:24:18;;;;;;;32.75;17.90;;;6.90;99.90;;;;;;4960346;28;20377;-84
2022/11/14 00:26:44;;;;;;;33.70;18.77;;;7.70;99.90;;;;;;4953851;28;20022;-87
2022/11/14 00:29:14;;;;;;;35.20;18.73;;;6.80;99.90;;;;;;4964873;28;20045;-87
2022/11/14 00:31:40;;;;;;;33.88;17.85;;;6.80;99.90;;;;;;4969042;28;20527;-84
2022/11/14 00:34:05;;;;;;;32.17;17.70;;;7.70;99.90;;;;;;4967874;28;20026;-85
2022/11/14 00:36:32;;;;;;;30.55;17.02;;;6.90;99.90;;;;;;4960254;28;20034;-82
2022/11/14 00:38:57;;;;;;;33.20;17.45;;;8.60;99.90;;;;;;4957188;28;20035;-87
2022/11/14 00:41:23;;;;;;;31.05;17.02;;;6.80;99.90;;;;;;4972529;28;20125;-85
2022/11/14 00:43:49;;;;;;;32.25;17.20;;;6.80;99.90;;;;;;4951027;28;20153;-84
2022/11/14 00:46:14;;;;;;;33.55;18.17;;;8.10;99.90;;;;;;4968021;28;20030;-83
2022/11/14 00:48:40;;;;;;;34.05;18.15;;;6.70;99.90;;;;;;4937290;28;20198;-83
2022/11/14 00:51:06;;;;;;;31.60;17.08;;;8.20;99.90;;;;;;4970690;28;20438;-83
2022/11/14 00:53:31;;;;;;;33.28;17.50;;;7.80;99.90;;;;;;4973083;28;20034;-85
2022/11/14 00:55:57;;;;;;;34.50;18.20;;;6.80;99.90;;;;;;4958261;28;20489;-85
2022/11/14 00:58:23;;;;;;;34.55;18.10;;;6.80;99.90;;;;;;4944152;28;20031;-82
2022/11/14 01:00:48;;;;;;;34.55;18.42;;;6.70;99.90;;;;;;4974928;28;20023;-81
2022/11/14 01:03:14;;;;;;;34.10;18.67;;;6.80;99.90;;;;;;4974210;28;20026;-86
2022/11/14 01:05:42;;;;;;;33.17;18.17;;;6.70;99.90;;;;;;4976493;28;20530;-84
2022/11/14 01:08:07;;;;;;;38.63;19.52;;;6.80;99.90;;;;;;4972386;28;20034;-87
2022/11/14 01:10:33;;;;;;;36.70;19.48;;;6.80;99.90;;;;;;4965763;28;20037;-85
2022/11/14 01:12:58;;;;;;;33.40;18.17;;;6.80;99.90;;;;;;4971812;28;20027;-85
2022/11/14 01:15:24;;;;;;;32.33;18.13;;;6.80;99.90;;;;;;4970627;28;20023;-83
2022/11/14 01:17:49;;;;;;;32.42;18.80;;;6.80;99.90;;;;;;4975545;28;20035;-86
2022/11/14 01:20:16;;;;;;;32.95;17.98;;;6.80;99.90;;;;;;4958478;28;20517;-83
2022/11/14 01:22:41;;;;;;;36.42;19.77;;;6.80;99.90;;;;;;4958466;28;20023;-82
2022/11/14 01:25:07;;;;;;;34.67;19.73;;;6.80;99.90;;;;;;4974621;28;20520;-79
2022/11/14 01:27:33;;;;;;;30.85;16.45;;;6.80;99.90;;;;;;4956518;28;20035;-83
2022/11/14 01:29:58;;;;;;;30.08;15.85;;;6.80;99.90;;;;;;4948592;28;20031;-85
2022/11/14 01:32:26;;;;;;;24.77;14.13;;;6.90;99.90;;;;;;4960942;28;20035;-85
2022/11/14 01:34:51;;;;;;;23.65;12.80;;;6.90;99.90;;;;;;4973743;28;20027;-83
2022/11/14 01:37:17;;;;;;;24.10;12.60;;;6.90;99.90;;;;;;4975390;28;20041;-84
2022/11/14 01:39:42;;;;;;;23.20;12.75;;;6.70;99.90;;;;;;4974445;28;20034;-86
2022/11/14 01:42:08;;;;;;;26.48;12.00;;;8.40;99.90;;;;;;4957684;28;20053;-84
2022/11/14 01:44:43;;;;;;;23.98;12.52;;;6.90;99.90;;;;;;4973592;28;20065;-84
2022/11/14 01:47:10;;;;;;;23.20;12.05;;;6.90;99.90;;;;;;4973954;28;20463;-85
2022/11/14 01:49:43;;;;;;;22.02;11.73;;;6.90;99.90;;;;;;4959556;28;20031;-87
2022/11/14 01:52:36;;;;;;;19.50;10.75;;;6.80;99.90;;;;;;4969443;28;20073;-85
2022/11/14 01:55:05;;;;;;;18.77;9.93;;;6.80;99.90;;;;;;4972856;28;20069;-86
2022/11/14 01:57:38;;;;;;;20.83;10.40;;;6.80;99.90;;;;;;4959870;28;20031;-85
2022/11/14 02:00:08;;;;;;;20.58;11.15;;;6.80;99.90;;;;;;4975417;28;20053;-82
2022/11/14 02:02:34;;;;;;;20.67;10.73;;;6.80;99.90;;;;;;4977750;28;20027;-80
2022/11/14 02:05:06;;;;;;;20.45;9.95;;;6.80;99.90;;;;;;4962003;28;20630;-84
2022/11/14 02:07:35;;;;;;;24.13;11.48;;;6.80;99.90;;;;;;4976374;28;20057;-85
2022/11/14 02:10:06;;;;;;;19.90;10.50;;;6.80;99.90;;;;;;4960257;28;20031;-86
2022/11/14 02:12:32;;;;;;;;;;;6.80;99.90;;;;;;4974564;28;20050;-84
2022/11/14 02:14:59;;;;;;;21.35;9.73;;;6.80;99.90;;;;;;4971921;28;19910;-84
2022/11/14 02:17:25;;;;;;;20.67;10.18;;;6.80;99.90;;;;;;4952045;28;20031;-83
2022/11/14 02:19:54;;;;;;;17.55;9.80;;;6.90;99.90;;;;;;4962119;28;20030;-84
2022/11/14 02:22:20;;;;;;;19.88;10.00;;;6.80;99.90;;;;;;4963607;28;20035;-83
2022/11/14 02:24:45;;;;;;;20.30;10.68;;;6.80;99.90;;;;;;4975697;28;20030;-86
2022/11/14 02:27:13;;;;;;;22.23;11.70;;;6.80;99.90;;;;;;4976182;28;20552;-84
2022/11/14 02:29:39;;;;;;;22.52;11.30;;;9.00;99.90;;;;;;4971767;28;20031;-82
2022/11/14 02:32:05;;;;;;;19.90;10.82;;;9.70;99.90;;;;;;4954060;28;20050;-84
2022/11/14 02:34:31;;;;;;;17.95;10.38;;;6.80;99.90;;;;;;4973563;28;20030;-83
2022/11/14 02:36:57;;;;;;;18.65;10.30;;;6.80;99.90;;;;;;4956152;28;20030;-85
2022/11/14 02:39:23;;;;;;;20.98;11.27;;;8.60;99.90;;;;;;4957945;28;20042;-84
2022/11/14 02:41:49;;;;;;;19.88;10.75;;;6.90;99.90;;;;;;4974968;28;20091;-85
2022/11/14 02:44:15;;;;;;;21.55;10.20;;;6.90;99.90;;;;;;4973733;28;20441;-83
2022/11/14 02:46:40;;;;;;;22.63;11.25;;;7.00;99.90;;;;;;4974124;28;20170;-85
2022/11/14 02:49:06;;;;;;;22.13;11.60;;;8.90;99.90;;;;;;4943046;28;20077;-84
2022/11/14 02:51:32;;;;;;;20.55;10.73;;;6.80;99.90;;;;;;4956453;28;20499;-83
2022/11/14 02:53:57;;;;;;;20.75;10.82;;;6.90;99.90;;;;;;4971739;28;20058;-85
2022/11/14 02:56:23;;;;;;;20.10;10.82;;;6.90;99.90;;;;;;4957325;28;20034;-82
2022/11/14 02:58:48;;;;;;;21.38;10.65;;;6.90;99.90;;;;;;4956292;28;20019;-82
2022/11/14 03:01:14;;;;;;;19.27;10.15;;;8.10;99.90;;;;;;4974417;28;20026;-85
2022/11/14 03:03:39;;;;;;;19.35;10.80;;;7.00;99.90;;;;;;4956921;28;20556;-85
2022/11/14 03:06:05;;;;;;;24.70;11.00;;;7.00;99.90;;;;;;4939392;28;20065;-80
2022/11/14 03:08:31;;;;;;;20.30;10.77;;;7.00;99.90;;;;;;4974399;28;20457;-81
2022/11/14 03:11:06;;;;;;;21.48;11.40;;;6.90;99.90;;;;;;4973011;28;20113;-84
2022/11/14 03:13:33;;;;;;;20.27;10.38;;;6.90;99.90;;;;;;4941928;28;20082;-85
2022/11/14 03:16:08;;;;;;;21.05;11.63;;;7.00;99.90;;;;;;4963080;28;20175;-81
2022/11/14 03:18:33;;;;;;;22.77;11.55;;;7.00;99.90;;;;;;4959936;28;20027;-84
2022/11/14 03:21:12;;;;;;;23.75;10.75;;;7.00;99.90;;;;;;4960038;28;20034;-85
2022/11/14 03:23:38;;;;;;;23.30;11.95;;;7.00;99.90;;;;;;4976164;28;20037;-85
2022/11/14 03:26:06;;;;;;;20.90;10.98;;;7.00;99.90;;;;;;4956837;28;20031;-84
2022/11/14 03:28:32;;;;;;;22.45;11.63;;;7.00;99.90;;;;;;4973864;28;20031;-85
2022/11/14 03:30:58;;;;;;;20.88;11.30;;;;;;;;;;4971576;28;20041;-84
2022/11/14 03:33:24;;;;;;;24.20;11.55;;;7.00;99.90;;;;;;4975121;28;20035;-83
2022/11/14 03:35:50;;;;;;;24.50;12.02;;;7.00;99.90;;;;;;4975211;28;20030;-85
2022/11/14 03:38:16;;;;;;;20.75;11.15;;;7.10;99.90;;;;;;4968495;28;20027;-81
2022/11/14 03:40:42;;;;;;;23.02;11.68;;;7.10;99.90;;;;;;4954323;28;20051;-84
2022/11/14 03:43:08;;;;;;;24.63;11.38;;;7.00;99.90;;;;;;4973553;28;20035;-83
2022/11/14 03:45:36;;;;;;;19.80;11.45;;;7.10;99.90;;;;;;4974272;28;20385;-80
2022/11/14 03:48:01;;;;;;;24.08;12.00;;;7.00;99.90;;;;;;4957294;28;20394;-83
2022/11/14 03:50:27;;;;;;;25.73;12.50;;;7.10;99.90;;;;;;4956815;28;20041;-84
2022/11/14 03:52:53;;;;;;;23.67;11.75;;;7.10;99.90;;;;;;4957654;28;20489;-79
2022/11/14 03:55:18;;;;;;;23.67;12.02;;;7.10;99.90;;;;;;4978309;28;20023;-79
2022/11/14 03:57:44;;;;;;;24.23;11.57;;;8.60;99.90;;;;;;4977075;28;20027;-86
2022/11/14 04:00:10;;;;;;;23.05;11.90;;;7.00;99.90;;;;;;4960980;28;20485;-81
2022/11/14 04:02:35;;;;;;;23.13;11.80;;;7.10;99.90;;;;;;4958269;28;20465;-82
2022/11/14 04:05:01;;;;;;;28.00;13.05;;;8.00;99.90;;;;;;4961004;28;20019;-87
2022/11/14 04:07:27;;;;;;;25.98;13.40;;;7.10;99.90;;;;;;4955380;28;20099;-81
2022/11/14 04:09:52;;;;;;;25.88;13.57;;;7.10;99.90;;;;;;4938481;28;20035;-80
2022/11/14 04:12:18;;;;;;;32.63;14.13;;;7.10;99.90;;;;;;4975510;28;20054;-84
2022/11/14 04:14:43;;;;;;;26.10;13.05;;;7.10;99.90;;;;;;4961216;28;20033;-85
2022/11/14 04:17:09;;;;;;;24.60;12.75;;;7.20;99.90;;;;;;4978749;28;20031;-85
2022/11/14 04:19:35;;;;;;;28.08;13.95;;;7.20;99.90;;;;;;4959346;28;20030;-84
2022/11/14 04:22:01;;;;;;;28.30;13.40;;;7.10;99.90;;;;;;4977280;28;20070;-83
2022/11/14 04:24:27;;;;;;;29.98;14.38;;;7.40;99.90;;;;;;4962259;28;20401;-84
2022/11/14 04:26:52;;;;;;;27.55;13.68;;;7.10;99.90;;;;;;4958813;28;20030;-86
2022/11/14 04:29:18;;;;;;;31.65;14.95;;;7.10;99.90;;;;;;4958971;28;20126;-84
2022/11/14 04:31:43;;;;;;;31.58;14.35;;;7.10;99.90;;;;;;4954534;28;20412;-82
2022/11/14 04:34:09;;;;;;;29.38;14.00;;;;;;;;;;4973457;28;20033;-83
2022/11/14 04:36:35;;;;;;;29.17;14.13;;;7.10;99.90;;;;;;4956159;28;20486;-83
2022/11/14 04:39:00;;;;;;;28.25;12.93;;;7.10;99.90;;;;;;4972479;28;21469;-84
2022/11/14 04:41:29;;;;;;;29.75;14.38;;;7.20;99.90;;;;;;4943778;28;20035;-83
2022/11/14 04:43:55;;;;;;;29.63;14.52;;;9.20;99.90;;;;;;4972332;28;20532;-81
2022/11/14 04:46:21;;;;;;;29.75;14.02;;;9.80;99.90;;;;;;4964186;28;20041;-85
2022/11/14 04:48:47;;;;;;;32.67;14.70;;;;;;;;;;4948060;28;20144;-82
2022/11/14 04:51:12;;;;;;;30.27;13.73;;;7.10;99.90;;;;;;4953393;28;20038;-83
2022/11/14 04:53:38;;;;;;;27.00;14.43;;;;;;;;;;4970867;28;20034;-83
2022/11/14 04:56:04;;;;;;;26.98;13.77;;;7.10;99.90;;;;;;4973267;28;20034;-81
2022/11/14 04:58:30;;;;;;;29.75;15.57;;;7.20;99.90;;;;;;4957236;28;20033;-85
2022/11/14 05:00:56;;;;;;;31.90;15.52;;;7.20;99.90;;;;;;4970821;28;20030;-82
2022/11/14 05:03:23;;;;;;;30.55;15.32;;;7.20;99.90;;;;;;4971057;28;20042;-87
2022/11/14 05:05:48;;;;;;;32.47;16.10;;;7.20;99.90;;;;;;4954802;28;20027;-82
2022/11/14 05:08:14;;;;;;;28.55;15.00;;;;;;;;;;4973367;28;20026;-82
2022/11/14 05:10:44;;;;;;;33.35;15.98;;;7.30;99.90;;;;;;4952825;28;20516;-84
2022/11/14 05:13:11;;;;;;;32.28;15.10;;;7.30;99.90;;;;;;4955914;28;20027;-86
2022/11/14 05:15:37;;;;;;;33.42;15.93;;;7.30;99.90;;;;;;4968887;28;20031;-81
2022/11/14 05:18:03;;;;;;;31.98;16.55;;;7.30;99.90;;;;;;4958986;28;20042;-85
2022/11/14 05:20:29;;;;;;;33.55;17.42;;;7.30;99.90;;;;;;4958407;28;20128;-86
2022/11/14 05:22:55;;;;;;;29.83;14.80;;;7.30;99.90;;;;;;4959109;28;20061;-86
2022/11/14 05:25:21;;;;;;;31.90;16.70;;;7.30;99.90;;;;;;4958675;28;20062;-84
2022/11/14 05:27:47;;;;;;;32.90;16.15;;;7.30;99.90;;;;;;4958974;28;20429;-86
2022/11/14 05:30:13;;;;;;;29.92;16.30;;;7.20;99.90;;;;;;4958842;28;20031;-87
2022/11/14 05:32:39;;;;;;;35.88;17.45;;;7.20;99.90;;;;;;4944089;28;20043;-85
2022/11/14 05:35:05;;;;;;;28.75;15.35;;;7.20;99.90;;;;;;4957156;28;20022;-85
2022/11/14 05:37:31;;;;;;;32.10;17.05;;;7.20;99.90;;;;;;4973637;28;20507;-84
2022/11/14 05:39:56;;;;;;;30.92;16.95;;;7.20;99.90;;;;;;4959279;28;20023;-81
2022/11/14 05:42:22;;;;;;;30.70;16.05;;;7.20;99.90;;;;;;4969722;28;20042;-81
2022/11/14 05:44:47;;;;;;;34.65;17.15;;;7.20;99.90;;;;;;4973288;28;20042;-87
2022/11/14 05:47:13;;;;;;;34.55;17.20;;;;;;;;;;4959262;28;20070;-87
2022/11/14 05:49:39;;;;;;;32.65;17.80;;;;;;;;;;4970538;28;20043;-83
2022/11/14 05:52:05;;;;;;;34.45;18.33;;;7.10;99.90;;;;;;4958902;28;20267;-84
2022/11/14 05:54:31;;;;;;;41.15;22.33;;;;;;;;;;4977979;28;20038;-86
2022/11/14 05:56:57;;;;;;;37.83;18.10;;;;;;;;;;4959917;28;20029;-84
2022/11/14 05:59:22;;;;;;;37.55;18.50;;;7.10;99.90;;;;;;4970229;28;20057;-80
2022/11/14 06:01:48;;;;;;;34.05;17.55;;;9.90;99.90;;;;;;4951798;28;20027;-84
2022/11/14 06:04:14;;;;;;;33.60;18.27;;;7.20;99.90;;;;;;4956230;28;20400;-82
2022/11/14 06:06:40;;;;;;;30.10;16.60;;;7.20;99.90;;;;;;4955804;28;20314;-84
2022/11/14 06:09:06;;;;;;;33.72;17.63;;;7.20;99.90;;;;;;4952931;28;20560;-87
2022/11/14 06:11:31;;;;;;;28.77;16.55;;;7.30;99.90;;;;;;4956290;28;20026;-86
2022/11/14 06:13:57;;;;;;;31.80;17.77;;;7.40;99.90;;;;;;4963610;28;20084;-86
2022/11/14 06:16:22;;;;;;;31.58;17.17;;;9.50;99.90;;;;;;4978360;28;20117;-82
2022/11/14 06:18:48;;;;;;;34.50;17.33;;;;;;;;;;4961270;28;20031;-85
2022/11/14 06:21:17;;;;;;;31.38;17.27;;;7.40;99.90;;;;;;4962334;28;20149;-85
2022/11/14 06:23:43;;;;;;;31.90;16.55;;;9.60;99.90;;;;;;4956763;28;20035;-85
2022/11/14 06:26:25;;;;;;;31.80;17.42;;;7.40;99.90;;;;;;4953369;28;20038;-87
2022/11/14 06:28:51;;;;;;;31.02;16.17;;;7.40;99.90;;;;;;4975229;28;20498;-86
2022/11/14 06:31:18;;;;;;;30.65;16.30;;;7.40;99.90;;;;;;4975389;28;20073;-87
2022/11/14 06:33:45;;;;;;;32.42;18.23;;;10.90;99.90;;;;;;4962107;28;20034;-88
2022/11/14 06:36:11;;;;;;;32.92;18.20;;;7.40;99.90;;;;;;4957983;28;20505;-85
2022/11/14 06:38:38;;;;;;;33.72;18.42;;;7.40;99.90;;;;;;4956626;28;20031;-81
2022/11/14 06:41:09;;;;;;;34.17;17.58;;;7.40;99.90;;;;;;4950365;28;20050;-87
2022/11/14 06:43:37;;;;;;;28.30;16.75;;;7.40;99.90;;;;;;4973803;28;20090;-83
2022/11/14 06:46:06;;;;;;;28.67;16.50;;;7.40;99.90;;;;;;4974589;28;20023;-87
2022/11/14 06:48:32;;;;;;;31.80;17.17;;;7.50;99.90;;;;;;4961995;28;20061;-83
2022/11/14 06:50:58;;;;;;;29.30;16.85;;;7.50;99.90;;;;;;4956841;28;20027;-84
2022/11/14 06:53:25;;;;;;;28.88;16.20;;;7.50;99.90;;;;;;4979093;28;20431;-82
2022/11/14 06:55:57;;;;;;;32.47;16.50;;;7.60;99.90;;;;;;4983529;28;20034;-84
2022/11/14 06:58:28;;;;;;;32.20;17.75;;;7.60;99.90;;;;;;4959181;28;20027;-86
2022/11/14 07:00:53;;;;;;;29.33;17.38;;;7.60;99.90;;;;;;4973429;28;20026;-82
2022/11/14 07:03:19;;;;;;;27.65;15.88;;;7.50;99.90;;;;;;4956832;28;20034;-85
2022/11/14 07:05:46;;;;;;;28.77;16.23;;;7.60;99.90;;;;;;4976098;28;20027;-86
2022/11/14 07:08:11;;;;;;;27.92;16.27;;;7.50;99.90;;;;;;4975825;28;20485;-81
2022/11/14 07:10:37;;;;;;;29.52;17.85;;;8.90;99.90;;;;;;4976208;28;20035;-84
2022/11/14 07:13:02;;;;;;;28.02;16.05;;;7.60;99.90;;;;;;4955327;28;20023;-87
2022/11/14 07:15:28;;;;;;;31.48;16.98;;;8.20;99.90;;;;;;4977825;28;20030;-87
2022/11/14 07:17:53;;;;;;;27.92;15.05;;;7.60;99.90;;;;;;4976331;28;20097;-84
2022/11/14 07:20:19;;;;;;;29.58;16.65;;;7.60;99.90;;;;;;4971322;28;20097;-83
2022/11/14 07:22:46;;;;;;;29.15;16.63;;;7.70;99.90;;;;;;4949857;28;20028;-84
2022/11/14 07:25:12;;;;;;;27.23;15.65;;;7.60;99.90;;;;;;4950243;28;20051;-85
2022/11/14 07:27:38;;;;;;;28.08;15.80;;;8.30;99.90;;;;;;4956357;28;20035;-86
2022/11/14 07:30:04;;;;;;;33.88;17.13;;;7.60;99.90;;;;;;4950455;28;20053;-84
2022/11/14 07:32:32;;;;;;;30.70;17.55;;;7.70;99.90;;;;;;4953405;28;20039;-81
2022/11/14 07:34:58;;;;;;;31.48;17.00;;;7.70;99.90;;;;;;4970479;28;20031;-83
2022/11/14 07:37:23;;;;;;;26.67;15.77;;;7.60;99.90;;;;;;4956590;28;20076;-85
2022/11/14 07:39:49;;;;;;;27.15;15.88;;;8.10;99.90;;;;;;4966898;28;20031;-87
2022/11/14 07:42:17;;;;;;;29.98;17.55;;;7.60;99.90;;;;;;4959868;28;20030;-84
2022/11/14 07:44:42;;;;;;;26.63;15.63;;;7.70;99.90;;;;;;4958258;28;20027;-88
2022/11/14 07:47:08;;;;;;;30.98;17.08;;;7.70;99.90;;;;;;4964444;28;20034;-86
2022/11/14 07:49:33;;;;;;;29.08;15.73;;;7.80;99.90;;;;;;4965291;28;20033;-85
2022/11/14 07:51:59;;;;;;;28.38;16.05;;;7.80;99.90;;;;;;4957854;28;20043;-83
2022/11/14 07:54:24;;;;;;;28.88;16.42;;;7.80;99.90;;;;;;4958065;28;20031;-86
2022/11/14 07:56:50;;;;;;;23.88;14.82;;;7.80;99.90;;;;;;4952644;28;20456;-86
2022/11/14 07:59:16;;;;;;;27.77;16.08;;;7.80;99.90;;;;;;4955570;28;20106;-86
2022/11/14 08:01:41;;;;;;;24.63;15.05;;;9.10;99.90;;;;;;4946747;28;20027;-84
2022/11/14 08:04:07;;;;;;;28.17;15.23;;;7.90;99.90;;;;;;4958195;28;20023;-84
2022/11/14 08:06:32;;;;;;;27.48;15.65;;;7.90;99.90;;;;;;4952839;28;20037;-83
2022/11/14 08:08:58;;;;;;;25.02;15.40;;;7.90;99.90;;;;;;4960966;28;20031;-82
2022/11/14 08:14:07;;;;;;;25.38;14.38;;;8.00;99.90;;;;;;4969697;28;20504;-87
2022/11/14 08:16:33;;;;;;;25.52;14.15;;;8.00;99.90;;;;;;4957051;28;20034;-86
2022/11/14 08:18:59;;;;;;;24.27;15.25;;;8.00;99.90;;;;;;4986365;28;20014;-84
2022/11/14 08:21:24;;;;;;;25.33;13.85;;;6.90;99.90;;;;;;4958608;28;20033;-85
2022/11/14 08:23:50;;;;;;;28.75;14.93;;;;;;;;;;4961796;28;20121;-88
2022/11/14 08:26:16;;;;;;;25.15;14.77;;;8.10;99.90;;;;;;4959281;28;20027;-85
2022/11/14 08:28:42;;;;;;;23.05;13.77;;;;;;;;;;4963099;28;20034;-89
2022/11/14 08:31:09;;;;;;;27.02;15.35;;;8.00;99.90;;;;;;4959010;28;20069;-89
2022/11/14 08:33:35;;;;;;;25.05;14.18;;;8.00;99.90;;;;;;4964278;28;20031;-88
2022/11/14 08:36:06;;;;;;;24.63;14.85;;;8.00;99.90;;;;;;4958757;28;20026;-87
2022/11/14 08:38:32;;;;;;;;;;;8.00;99.90;;;;;;4977872;28;20063;-87
2022/11/14 08:41:02;;;;;;;24.50;13.95;;;8.10;99.90;;;;;;4957462;28;20515;-88
2022/11/14 08:43:29;;;;;;;26.63;15.38;;;8.10;99.90;;;;;;4970639;28;20031;-88
2022/11/14 08:45:59;;;;;;;24.20;14.18;;;8.10;99.90;;;;;;4959252;28;20027;-86
2022/11/14 08:48:25;;;;;;;27.55;15.50;;;8.70;99.90;;;;;;4972346;28;20519;-83
2022/11/14 08:50:51;;;;;;;21.42;13.77;;;8.10;99.90;;;;;;4974133;28;20493;-89
2022/11/14 08:53:17;;;;;;;25.23;13.48;;;;;;;;;;4983685;28;20007;-86
2022/11/14 08:55:43;;;;;;;24.20;14.38;;;8.20;99.90;;;;;;4984082;28;20023;-90
2022/11/14 08:58:22;;;;;;;24.00;13.55;;;8.20;99.90;;;;;;4988149;28;20019;-88
2022/11/14 09:00:48;;;;;;;21.88;12.75;;;;;;;;;;4986938;28;20019;-84
2022/11/14 09:03:14;;;;;;;22.63;14.07;;;8.20;99.90;;;;;;5001192;28;20014;-84
2022/11/14 09:05:41;;;;;;;21.55;13.80;;;;;;;;;;4999254;28;20086;-88
2022/11/14 09:08:07;;;;;;;23.38;13.63;;;;;;;;;;4981759;28;20056;-87
2022/11/14 09:10:33;;;;;;;27.77;14.98;;;8.30;99.90;;;;;;4984118;28;20038;-86
2022/11/14 09:13:00;;;;;;;25.48;14.30;;;8.40;99.90;;;;;;4982672;28;20011;-89
2022/11/14 09:15:46;;;;;;;23.55;14.18;;;8.40;99.90;;;;;;4983510;28;20046;-87
2022/11/14 09:18:17;;;;;;;27.77;14.15;;;8.40;99.90;;;;;;4972550;28;20050;-89
2022/11/14 09:20:43;;;;;;;23.65;13.82;;;;;;;;;;4982319;28;20012;-88
2022/11/14 09:23:12;;;;;;;23.08;13.38;;;8.40;99.90;;;;;;4982663;28;20015;-86
2022/11/14 09:25:43;;;;;;;22.63;13.00;;;;;;;;;;4982510;28;20076;-88
2022/11/14 09:28:09;;;;;;;22.08;13.15;;;;;;;;;;4978697;28;20015;-91
2022/11/14 09:31:20;;;;;;;23.38;12.88;;;8.50;99.90;;;;;;5008870;23;20046;-87
2022/11/14 09:38:12;;;;;;;22.85;13.13;;;8.50;99.90;;;;;;4956599;29;20405;-89
2022/11/14 15:05:07;;;;;;;19.48;10.52;;;;;;;;;;4991084;28;20035;-90
2022/11/14 15:07:34;;;;;;;17.52;10.60;;;;;;;;;;4975571;28;20024;-89
2022/11/14 15:10:01;;;;;;;21.20;10.93;;;10.70;99.90;;;;;;4997035;28;20057;-93
2022/11/14 15:12:57;;;;;;;;;;;;;;;;;;;;;
2022/11/14 15:15:26;;;;;;;20.52;11.77;;;;;;;;;;4991321;28;20038;-91
2022/11/14 15:17:54;;;;;;;15.40;9.77;;;10.70;99.90;;;;;;4980814;28;20077;-92
2022/11/14 15:20:25;;;;;;;18.67;10.80;;;10.70;99.90;;;;;;4980077;28;20023;-90
2022/11/14 15:23:25;;;;;;;19.10;10.98;;;10.70;99.90;;;;;;4977081;28;20015;-90
2022/11/14 15:26:02;;;;;;;16.85;11.18;;;10.70;99.90;;;;;;4944512;28;20098;-90
2022/11/14 15:28:29;;;;;;;19.92;12.30;;;10.70;99.90;;;;;;4984063;28;20054;-91
2022/11/14 15:31:10;;;;;;;19.05;10.98;;;;;;;;;;4978013;28;20062;-90
2022/11/14 15:33:36;;;;;;;17.50;10.48;;;;;;;;;;4975079;28;20027;-89
2022/11/14 15:36:11;;;;;;;20.48;11.30;;;10.70;99.90;;;;;;4979407;28;20035;-89
2022/11/14 15:38:37;;;;;;;18.20;10.43;;;;;;;;;;4980979;28;20053;-89
2022/11/14 15:41:22;;;;;;;16.58;10.38;;;10.70;99.90;;;;;;5001062;28;20038;-89
2022/11/14 15:43:52;;;;;;;19.02;11.07;;;10.70;99.90;;;;;;4981532;28;20011;-90
2022/11/14 15:46:27;;;;;;;20.38;11.45;;;;;;;;;;4983029;28;20007;-91
2022/11/14 15:48:54;;;;;;;19.02;11.73;;;;;;;;;;4994281;28;20049;-91
2022/11/14 15:51:40;;;;;;;19.48;11.73;;;10.70;99.90;;;;;;4984677;28;20042;-88
2022/11/14 15:54:25;;;;;;;20.92;12.20;;;10.50;99.90;;;;;;4995737;28;20046;-89
2022/11/14 15:56:53;;;;;;;19.08;11.57;;;10.70;99.90;;;;;;4993950;28;20030;-89
2022/11/14 15:59:19;;;;;;;19.13;11.60;;;;;;;;;;4972889;28;20082;-91
2022/11/14 16:01:48;;;;;;;18.45;11.60;;;10.60;99.90;;;;;;4988260;28;20263;-91
2022/11/14 16:04:22;;;;;;;21.95;11.65;;;10.60;99.90;;;;;;4984548;28;20019;-91
2022/11/14 16:06:48;;;;;;;17.77;11.48;;;;;;;;;;4983113;28;20031;-90
2022/11/14 16:09:16;;;;;;;18.98;12.02;;;;;;;;;;4985734;28;20030;-89
2022/11/14 16:11:43;;;;;;;20.92;13.20;;;;;;;;;;4966765;28;20018;-90
2022/11/14 16:14:12;;;;;;;21.45;12.43;;;;;;;;;;4995345;28;20034;-90
2022/11/14 16:16:38;;;;;;;19.35;12.82;;;;;;;;;;4983718;28;20019;-89
2022/11/14 16:19:05;;;;;;;21.60;14.63;;;10.50;99.90;;;;;;4988687;28;20086;-89
2022/11/14 16:21:31;;;;;;;21.30;13.63;;;;;;;;;;4988517;28;20015;-89
2022/11/14 16:23:57;;;;;;;22.00;13.55;;;;;;;;;;4977072;28;20071;-89
2022/11/14 16:26:27;;;;;;;23.55;14.32;;;;;;;;;;4979823;28;20117;-90
2022/11/14 16:28:55;;;;;;;22.97;13.67;;;;;;;;;;4979881;28;20091;-90
2022/11/14 16:31:22;;;;;;;21.90;14.23;;;;;;;;;;4980712;28;20018;-89
2022/11/14 16:33:50;;;;;;;23.98;13.90;;;;;;;;;;5002501;28;20031;-91
2022/11/14 16:36:20;;;;;;;22.13;13.18;;;10.50;99.90;;;;;;4977545;28;20046;-91
2022/11/14 16:38:46;;;;;;;20.90;13.20;;;;;;;;;;4991990;28;20050;-89
2022/11/14 16:41:12;;;;;;;23.58;13.80;;;;;;;;;;4978983;28;20015;-88
2022/11/14 16:43:38;;;;;;;20.80;13.25;;;;;;;;;;4991972;28;20062;-85
2022/11/14 16:46:05;;;;;;;18.88;12.95;;;10.50;99.90;;;;;;4976502;28;20104;-89
2022/11/14 16:48:32;;;;;;;20.55;12.82;;;;;;;;;;4993783;28;20023;-88
2022/11/14 16:51:02;;;;;;;20.17;13.07;;;10.40;99.90;;;;;;4998485;28;20033;-90
2022/11/14 16:53:28;;;;;;;20.40;12.52;;;;;;;;;;4979316;28;20089;-87
2022/11/14 16:55:54;;;;;;;23.95;13.80;;;;;;;;;;4980212;28;20509;-89
2022/11/14 16:58:20;;;;;;;19.95;13.02;;;;;;;;;;4991911;28;20057;-88
2022/11/14 17:00:46;;;;;;;19.23;11.82;;;10.50;99.90;;;;;;4974772;28;20022;-85
2022/11/14 17:03:12;;;;;;;21.00;12.93;;;10.50;99.90;;;;;;4993348;28;20050;-88
2022/11/14 17:05:46;;;;;;;20.52;12.50;;;10.60;99.90;;;;;;4972214;28;20011;-87
2022/11/14 17:08:11;;;;;;;22.33;13.20;;;10.60;99.90;;;;;;4978116;28;20022;-88
2022/11/14 17:10:45;;;;;;;21.08;12.30;;;10.50;99.90;;;;;;4976938;28;20070;-89
2022/11/14 17:13:12;;;;;;;18.40;11.50;;;12.50;99.90;;;;;;4960569;28;20019;-87
2022/11/14 17:15:39;;;;;;;22.35;12.18;;;10.60;99.90;;;;;;4981336;28;20546;-89
2022/11/14 17:18:08;;;;;;;18.52;12.48;;;10.00;99.90;;;;;;4982428;28;20037;-87
2022/11/14 17:20:36;;;;;;;18.75;12.55;;;10.80;99.90;;;;;;4979764;28;20025;-86
2022/11/14 17:23:04;;;;;;;17.17;11.18;;;10.50;99.90;;;;;;4982911;28;20042;-88
2022/11/14 17:25:30;;;;;;;21.10;11.95;;;12.40;99.90;;;;;;4985346;28;20079;-88
2022/11/14 17:27:55;;;;;;;20.35;11.85;;;11.30;99.90;;;;;;5001541;28;20030;-90
2022/11/14 17:30:21;;;;;;;17.08;11.32;;;10.80;99.90;;;;;;4987843;28;20034;-89
2022/11/14 17:32:47;;;;;;;22.48;12.02;;;10.90;99.90;;;;;;4986148;28;20035;-88
2022/11/14 17:35:14;;;;;;;19.00;11.35;;;;;;;;;;4980697;28;20026;-90
2022/11/14 17:37:41;;;;;;;22.25;12.18;;;10.80;99.90;;;;;;4979318;28;20023;-89
2022/11/14 17:40:07;;;;;;;19.35;11.43;;;11.90;99.90;;;;;;4994021;28;20023;-88
2022/11/14 17:42:40;;;;;;;21.20;11.50;;;10.80;99.90;;;;;;4997168;28;20027;-88
2022/11/14 17:45:07;;;;;;;22.38;11.50;;;10.90;99.90;;;;;;4967512;28;20019;-89
2022/11/14 17:47:32;;;;;;;20.60;11.68;;;10.80;99.90;;;;;;4986150;28;20026;-89
2022/11/14 17:49:58;;;;;;;19.27;11.30;;;10.90;99.90;;;;;;5002029;28;20031;-90
2022/11/14 17:52:23;;;;;;;17.90;11.35;;;10.90;99.90;;;;;;4979687;28;20043;-88
2022/11/14 17:54:49;;;;;;;17.77;10.82;;;;;;;;;;4981739;28;20104;-89
2022/11/14 17:57:16;;;;;;;19.15;11.32;;;10.90;99.90;;;;;;4980651;28;20018;-86
2022/11/14 17:59:41;;;;;;;18.15;10.88;;;11.20;99.90;;;;;;4988145;28;20031;-90
2022/11/14 18:02:13;;;;;;;17.58;11.10;;;10.90;99.90;;;;;;4980690;28;20043;-87
2022/11/14 18:04:39;;;;;;;18.25;11.25;;;11.00;99.90;;;;;;4998791;28;20063;-86
2022/11/14 18:07:05;;;;;;;15.93;10.13;;;;;;;;;;4978559;28;20039;-88
2022/11/14 18:09:30;;;;;;;18.17;10.88;;;11.00;99.90;;;;;;4981617;28;20027;-88
2022/11/14 18:11:57;;;;;;;20.00;10.85;;;11.00;99.90;;;;;;4995351;28;20050;-88
2022/11/14 18:14:24;;;;;;;18.60;10.55;;;11.00;99.90;;;;;;4958699;28;20042;-86
2022/11/14 18:16:50;;;;;;;18.08;10.32;;;;;;;;;;4979213;28;20042;-89
2022/11/14 18:19:16;;;;;;;20.17;10.10;;;;;;;;;;4979703;28;20077;-89
2022/11/14 18:21:43;;;;;;;20.73;10.93;;;11.00;99.90;;;;;;4980531;28;20043;-90
2022/11/14 18:24:12;;;;;;;16.73;9.60;;;11.00;99.90;;;;;;4979594;28;20018;-89
2022/11/14 18:26:38;;;;;;;17.13;10.30;;;;;;;;;;5004307;28;20011;-90